createdAt,value
2022-07-29T00:01:46.693Z,43.40
2022-07-29T00:04:19.196Z,43.00
2022-07-29T00:06:46.578Z,43.00
2022-07-29T00:09:15.734Z,43.40
2022-07-29T00:11:47.730Z,42.90
2022-07-29T00:14:14.710Z,43.20
2022-07-29T00:16:44.087Z,43.50
2022-07-29T00:19:13.304Z,43.70
2022-07-29T00:21:40.119Z,44.10
2022-07-29T00:24:09.400Z,43.90
2022-07-29T00:26:36.171Z,43.90
2022-07-29T00:29:33.125Z,43.90
2022-07-29T00:31:54.169Z,44.10
2022-07-29T00:34:39.621Z,44.10
2022-07-29T00:37:08.570Z,43.90
2022-07-29T00:39:37.728Z,43.90
2022-07-29T00:42:05.659Z,43.90
2022-07-29T00:44:37.929Z,43.80
2022-07-29T00:47:08.373Z,43.80
2022-07-29T00:49:37.135Z,43.40
2022-07-29T00:52:12.436Z,44.20
2022-07-29T00:54:44.087Z,43.60
2022-07-29T00:57:12.282Z,43.50
2022-07-29T00:59:41.474Z,44.00
2022-07-29T01:02:09.479Z,43.20
2022-07-29T01:04:37.528Z,43.10
2022-07-29T01:07:13.081Z,43.30
2022-07-29T01:09:50.932Z,43.30
2022-07-29T01:12:25.494Z,43.40
2022-07-29T01:14:55.367Z,43.50
2022-07-29T01:17:27.497Z,43.20
2022-07-29T01:20:10.842Z,43.10
2022-07-29T01:23:08.912Z,42.90
2022-07-29T01:25:38.302Z,43.00
2022-07-29T01:28:42.368Z,43.00
2022-07-29T01:31:13.415Z,43.10
2022-07-29T01:33:54.838Z,43.30
2022-07-29T01:37:02.532Z,42.70
2022-07-29T01:39:40.307Z,43.20
2022-07-29T01:42:17.642Z,43.50
2022-07-29T01:45:09.241Z,43.60
2022-07-29T01:47:53.911Z,43.90
2022-07-29T01:50:24.164Z,44.10
2022-07-29T01:52:56.864Z,44.10
2022-07-29T01:55:31.414Z,44.50
2022-07-29T01:58:01.131Z,44.60
2022-07-29T02:00:29.413Z,44.50
2022-07-29T02:02:57.807Z,44.60
2022-07-29T02:05:28.006Z,44.70
2022-07-29T02:07:56.530Z,44.90
2022-07-29T02:10:30.133Z,45.30
2022-07-29T02:13:01.854Z,45.80
2022-07-29T02:15:33.747Z,46.30
2022-07-29T02:18:08.289Z,46.70
2022-07-29T02:20:35.346Z,46.90
2022-07-29T02:23:04.567Z,46.80
2022-07-29T02:25:37.595Z,47.10
2022-07-29T02:28:10.850Z,47.60
2022-07-29T02:30:45.398Z,47.60
2022-07-29T02:33:16.576Z,46.30
2022-07-29T02:35:49.689Z,48.10
2022-07-29T02:38:40.369Z,49.00
2022-07-29T02:41:12.842Z,52.30
2022-07-29T02:43:43.857Z,54.10
2022-07-29T02:46:28.995Z,53.70
2022-07-29T02:49:20.235Z,53.70
2022-07-29T02:51:53.889Z,55.50
2022-07-29T02:54:43.051Z,53.90
2022-07-29T02:57:55.070Z,55.00
2022-07-29T03:00:30.459Z,55.50
2022-07-29T03:03:00.704Z,54.40
2022-07-29T03:05:28.259Z,55.00
2022-07-29T03:08:06.657Z,55.10
2022-07-29T03:10:38.166Z,56.50
2022-07-29T03:13:06.679Z,55.50
2022-07-29T03:15:36.570Z,55.90
2022-07-29T03:18:08.183Z,56.20
2022-07-29T03:20:35.008Z,56.90
2022-07-29T03:23:03.818Z,56.60
2022-07-29T03:25:30.969Z,56.40
2022-07-29T03:28:01.707Z,56.90
2022-07-29T03:30:32.735Z,57.10
2022-07-29T03:33:02.338Z,56.60
2022-07-29T03:35:35.695Z,56.60
2022-07-29T03:38:02.457Z,56.60
2022-07-29T03:40:45.033Z,56.60
2022-07-29T03:43:15.814Z,57.10
2022-07-29T03:45:45.250Z,56.90
2022-07-29T03:48:17.399Z,57.30
2022-07-29T03:50:46.847Z,57.50
2022-07-29T03:53:14.009Z,57.60
2022-07-29T03:55:47.084Z,58.20
2022-07-29T03:58:17.137Z,60.00
2022-07-29T04:00:44.931Z,58.20
2022-07-29T04:03:11.987Z,58.10
2022-07-29T04:05:38.869Z,57.60
2022-07-29T04:08:08.194Z,57.60
2022-07-29T04:10:48.739Z,58.50
2022-07-29T04:13:15.418Z,59.00
2022-07-29T04:15:45.044Z,58.70
2022-07-29T04:18:11.785Z,58.80
2022-07-29T04:20:43.275Z,59.10
2022-07-29T04:23:09.999Z,59.90
2022-07-29T04:25:50.258Z,59.60
2022-07-29T04:28:17.040Z,60.60
2022-07-29T04:30:44.064Z,60.20
2022-07-29T04:33:13.187Z,60.70
2022-07-29T04:35:47.055Z,60.90
2022-07-29T04:38:17.405Z,60.70
2022-07-29T04:40:47.057Z,60.20
2022-07-29T04:43:16.386Z,61.00
2022-07-29T04:45:43.102Z,60.50
2022-07-29T04:48:09.964Z,60.20
2022-07-29T04:50:39.741Z,59.80
2022-07-29T04:53:06.983Z,60.10
2022-07-29T04:55:34.267Z,59.60
2022-07-29T04:58:01.127Z,59.60
2022-07-29T05:00:33.263Z,59.40
2022-07-29T05:03:00.647Z,59.40
2022-07-29T05:05:27.410Z,59.60
2022-07-29T05:07:54.151Z,59.60
2022-07-29T05:10:20.883Z,59.60
2022-07-29T05:12:48.033Z,60.00
2022-07-29T05:15:14.748Z,59.90
2022-07-29T05:17:41.490Z,59.70
2022-07-29T05:20:08.720Z,59.60
2022-07-29T05:22:35.457Z,59.60
2022-07-29T05:25:08.560Z,60.10
2022-07-29T05:27:36.821Z,59.80
2022-07-29T05:30:03.969Z,60.20
2022-07-29T05:32:30.621Z,60.00
2022-07-29T05:34:57.326Z,60.20
2022-07-29T05:37:23.991Z,60.70
2022-07-29T05:39:56.572Z,60.40
2022-07-29T05:42:25.075Z,60.80
2022-07-29T05:44:52.027Z,61.30
2022-07-29T05:47:19.053Z,60.60
2022-07-29T05:49:46.246Z,60.80
2022-07-29T05:52:14.139Z,60.40
2022-07-29T05:54:41.365Z,60.70
2022-07-29T05:57:08.123Z,60.70
2022-07-29T05:59:38.321Z,61.00
2022-07-29T06:02:06.041Z,61.90
2022-07-29T06:04:33.457Z,61.90
2022-07-29T06:07:00.190Z,62.10
2022-07-29T06:09:26.975Z,62.00
2022-07-29T06:11:53.763Z,62.10
2022-07-29T06:14:20.735Z,62.20
2022-07-29T06:16:47.599Z,62.20
2022-07-29T06:19:14.318Z,62.20
2022-07-29T06:21:47.405Z,62.80
2022-07-29T06:24:15.375Z,62.50
2022-07-29T06:26:43.451Z,62.20
2022-07-29T06:29:11.603Z,62.30
2022-07-29T06:31:38.820Z,62.40
2022-07-29T06:34:05.966Z,62.20
2022-07-29T06:36:35.974Z,62.10
2022-07-29T06:39:08.723Z,62.50
2022-07-29T06:41:36.392Z,62.40
2022-07-29T06:44:10.035Z,62.00
2022-07-29T06:46:37.424Z,61.90
2022-07-29T06:49:04.960Z,61.80
2022-07-29T06:51:31.744Z,62.10
2022-07-29T06:54:02.447Z,61.90
2022-07-29T06:56:31.606Z,61.80
2022-07-29T06:58:58.546Z,61.80
2022-07-29T07:01:25.298Z,61.90
2022-07-29T07:03:52.086Z,62.00
2022-07-29T07:06:18.914Z,62.30
2022-07-29T07:08:45.651Z,62.10
2022-07-29T07:11:13.176Z,62.20
2022-07-29T07:13:39.959Z,62.20
2022-07-29T07:16:06.806Z,62.00
2022-07-29T07:18:33.586Z,61.90
2022-07-29T07:21:00.462Z,62.10
2022-07-29T07:23:27.200Z,62.70
2022-07-29T07:25:54.174Z,62.00
2022-07-29T07:28:24.475Z,62.10
2022-07-29T07:30:52.588Z,61.90
2022-07-29T07:33:19.573Z,61.80
2022-07-29T07:35:46.574Z,62.10
2022-07-29T07:38:13.740Z,61.80
2022-07-29T07:40:41.579Z,62.10
2022-07-29T07:43:08.347Z,61.80
2022-07-29T07:45:35.228Z,61.30
2022-07-29T07:48:07.294Z,61.00
2022-07-29T07:50:33.945Z,60.90
2022-07-29T07:53:02.903Z,60.40
2022-07-29T07:55:47.283Z,60.30
2022-07-29T07:58:16.386Z,59.70
2022-07-29T08:00:43.213Z,59.20
2022-07-29T08:03:16.987Z,59.90
2022-07-29T08:05:44.125Z,59.50
2022-07-29T08:08:10.833Z,59.40
2022-07-29T08:10:56.394Z,59.10
2022-07-29T08:13:33.125Z,58.90
2022-07-29T08:16:11.719Z,58.70
2022-07-29T08:18:40.031Z,58.20
2022-07-29T08:21:06.971Z,57.80
2022-07-29T08:23:46.880Z,57.40
2022-07-29T08:26:15.919Z,57.90
2022-07-29T08:28:46.550Z,57.20
2022-07-29T08:31:13.995Z,57.10
2022-07-29T08:33:40.725Z,57.50
2022-07-29T08:36:07.877Z,57.10
2022-07-29T08:38:34.859Z,56.90
2022-07-29T08:41:02.790Z,57.10
2022-07-29T08:43:30.169Z,57.20
2022-07-29T08:45:56.908Z,57.30
2022-07-29T08:48:25.558Z,57.30
2022-07-29T08:50:56.926Z,57.70
2022-07-29T08:53:27.275Z,58.20
2022-07-29T08:55:54.576Z,57.80
2022-07-29T08:58:23.065Z,57.80
2022-07-29T09:00:55.560Z,58.10
2022-07-29T09:03:25.647Z,58.00
2022-07-29T09:05:57.290Z,57.50
2022-07-29T09:08:24.682Z,58.10
2022-07-29T09:10:52.139Z,58.20
2022-07-29T09:13:18.885Z,58.20
2022-07-29T09:15:45.861Z,58.00
2022-07-29T09:18:19.573Z,57.90
2022-07-29T09:21:15.808Z,57.30
2022-07-29T09:24:02.470Z,57.60
2022-07-29T09:26:30.701Z,57.00
2022-07-29T09:28:58.620Z,56.30
2022-07-29T09:31:36.925Z,56.40
2022-07-29T09:34:04.422Z,56.10
2022-07-29T09:36:31.236Z,55.80
2022-07-29T09:39:01.861Z,56.10
2022-07-29T09:41:29.541Z,54.90
2022-07-29T09:44:00.496Z,54.60
2022-07-29T09:46:27.317Z,54.60
2022-07-29T09:49:11.859Z,55.40
2022-07-29T09:51:39.217Z,54.70
2022-07-29T09:54:24.815Z,54.00
2022-07-29T09:56:51.563Z,53.40
2022-07-29T09:59:18.289Z,53.30
2022-07-29T10:01:47.539Z,52.60
2022-07-29T10:04:14.269Z,52.00
2022-07-29T10:07:03.774Z,52.30
2022-07-29T10:09:31.784Z,51.70
2022-07-29T10:12:12.020Z,52.00
2022-07-29T10:14:39.737Z,51.80
2022-07-29T10:17:08.051Z,51.90
2022-07-29T10:19:35.641Z,52.30
2022-07-29T10:22:05.584Z,51.90
2022-07-29T10:24:33.144Z,51.70
2022-07-29T10:27:02.962Z,52.20
2022-07-29T10:29:32.207Z,51.90
2022-07-29T10:32:05.044Z,51.70
2022-07-29T10:34:50.252Z,51.90
2022-07-29T10:37:47.910Z,51.30
2022-07-29T10:40:51.827Z,51.60
2022-07-29T10:43:29.784Z,51.20
2022-07-29T10:45:59.209Z,51.10
2022-07-29T10:48:26.314Z,51.20
2022-07-29T10:50:56.181Z,51.50
2022-07-29T10:53:24.592Z,50.60
2022-07-29T10:55:53.201Z,50.60
2022-07-29T10:58:21.324Z,50.50
2022-07-29T11:00:51.094Z,50.60
2022-07-29T11:03:53.722Z,51.30
2022-07-29T11:06:28.123Z,51.40
2022-07-29T11:09:18.246Z,51.00
2022-07-29T11:11:51.367Z,50.70
2022-07-29T11:14:19.799Z,50.40
2022-07-29T11:17:00.629Z,50.30
2022-07-29T11:19:30.891Z,49.50
2022-07-29T11:21:58.765Z,49.40
2022-07-29T11:24:33.080Z,49.60
2022-07-29T11:27:20.593Z,50.10
2022-07-29T11:30:03.446Z,50.60
2022-07-29T11:32:40.367Z,50.20
2022-07-29T11:35:37.954Z,50.50
2022-07-29T11:38:28.379Z,50.50
2022-07-29T11:41:22.457Z,50.30
2022-07-29T11:43:54.816Z,49.90
2022-07-29T11:46:48.159Z,50.30
2022-07-29T11:52:11.719Z,49.20
2022-07-29T11:54:58.089Z,49.00
2022-07-29T11:57:36.321Z,49.00
2022-07-29T12:00:12.057Z,49.50
2022-07-29T12:02:43.040Z,49.40
2022-07-29T12:05:11.898Z,48.50
2022-07-29T12:07:03.750Z,49.30
2022-07-29T12:07:41.199Z,48.30
2022-07-29T12:10:19.868Z,48.10
2022-07-29T12:12:53.749Z,48.30
2022-07-29T12:15:22.265Z,47.90
2022-07-29T12:17:49.205Z,48.20
2022-07-29T12:20:24.807Z,47.70
2022-07-29T12:22:54.450Z,47.10
2022-07-29T12:25:38.520Z,46.90
2022-07-29T12:28:07.339Z,47.40
2022-07-29T12:30:42.975Z,46.90
2022-07-29T12:33:13.166Z,46.40
2022-07-29T12:35:40.594Z,46.30
2022-07-29T12:38:07.541Z,46.30
2022-07-29T12:40:34.796Z,46.10
2022-07-29T12:43:20.105Z,45.70
2022-07-29T12:45:50.818Z,45.60
2022-07-29T12:48:19.119Z,44.90
2022-07-29T12:51:09.745Z,44.60
2022-07-29T12:53:37.624Z,44.00
2022-07-29T12:56:15.561Z,44.80
2022-07-29T12:58:52.628Z,44.10
2022-07-29T13:01:20.900Z,44.70
2022-07-29T13:03:56.976Z,43.90
2022-07-29T13:06:34.602Z,44.80
2022-07-29T13:09:03.524Z,44.10
2022-07-29T13:11:33.316Z,45.10
2022-07-29T13:14:06.906Z,44.20
2022-07-29T13:16:34.278Z,44.90
2022-07-29T13:19:05.999Z,44.50
2022-07-29T13:21:33.085Z,44.40
2022-07-29T13:23:59.782Z,44.10
2022-07-29T13:26:26.583Z,44.30
2022-07-29T13:28:55.377Z,44.70
2022-07-29T13:31:23.022Z,44.50
2022-07-29T13:33:49.829Z,44.60
2022-07-29T13:36:16.564Z,44.50
2022-07-29T13:38:43.247Z,44.70
2022-07-29T13:41:10.145Z,44.40
2022-07-29T13:43:37.409Z,43.10
2022-07-29T13:46:04.183Z,44.00
2022-07-29T13:48:30.913Z,43.70
2022-07-29T13:50:57.790Z,42.20
2022-07-29T13:53:26.829Z,40.60
2022-07-29T13:55:54.706Z,38.90
2022-07-29T13:58:21.446Z,38.90
2022-07-29T14:00:50.600Z,37.50
2022-07-29T14:03:17.645Z,36.40
2022-07-29T14:05:44.854Z,34.80
2022-07-29T14:08:11.687Z,34.10
2022-07-29T14:10:38.351Z,32.70
2022-07-29T14:13:05.152Z,31.40
2022-07-29T14:15:31.876Z,30.80
2022-07-29T14:17:58.583Z,29.90
2022-07-29T14:20:25.372Z,29.80
2022-07-29T14:22:52.058Z,29.10
2022-07-29T14:25:21.219Z,28.30
2022-07-29T14:27:50.286Z,27.60
2022-07-29T14:30:16.955Z,27.50
2022-07-29T14:32:43.860Z,26.80
2022-07-29T14:35:10.643Z,26.40
2022-07-29T14:37:39.976Z,26.80
2022-07-29T14:40:08.344Z,26.20
2022-07-29T14:42:35.246Z,25.90
2022-07-29T14:45:01.967Z,25.70
2022-07-29T14:47:28.690Z,26.20
2022-07-29T14:49:55.544Z,26.40
2022-07-29T14:52:22.204Z,26.30
2022-07-29T14:54:49.057Z,25.80
2022-07-29T14:57:15.844Z,25.80
2022-07-29T14:59:42.555Z,25.90
2022-07-29T15:02:09.588Z,26.10
2022-07-29T15:04:36.380Z,26.70
2022-07-29T15:07:03.249Z,26.80
2022-07-29T15:09:29.981Z,27.20
2022-07-29T15:11:57.163Z,27.20
2022-07-29T15:14:24.141Z,27.10
2022-07-29T15:16:52.905Z,27.00
2022-07-29T15:19:19.930Z,27.00
2022-07-29T15:21:48.736Z,27.20
2022-07-29T15:24:17.497Z,26.80
2022-07-29T15:26:44.420Z,26.90
2022-07-29T15:29:11.171Z,26.90
2022-07-29T15:31:38.027Z,26.90
2022-07-29T15:34:06.321Z,27.10
2022-07-29T15:36:51.582Z,27.10
2022-07-29T15:39:19.609Z,28.10
2022-07-29T15:41:46.905Z,28.30
2022-07-29T15:44:13.718Z,28.00
2022-07-29T15:46:59.587Z,28.10
2022-07-29T15:49:48.470Z,28.00
2022-07-29T15:52:24.830Z,28.00
2022-07-29T15:54:53.638Z,27.80
2022-07-29T15:57:20.749Z,27.90
2022-07-29T15:59:47.429Z,27.90
2022-07-29T16:02:14.129Z,28.20
2022-07-29T16:04:41.055Z,27.90
2022-07-29T16:07:07.785Z,27.70
2022-07-29T16:09:34.688Z,27.40
2022-07-29T16:12:01.407Z,27.30
2022-07-29T16:14:28.875Z,27.30
2022-07-29T16:16:56.658Z,26.90
2022-07-29T16:19:23.593Z,26.60
2022-07-29T16:21:50.303Z,26.50
2022-07-29T16:24:16.989Z,26.50
2022-07-29T16:26:43.706Z,26.90
2022-07-29T16:29:12.522Z,27.20
2022-07-29T16:31:39.308Z,27.50
2022-07-29T16:34:06.051Z,27.80
2022-07-29T16:36:32.721Z,28.10
2022-07-29T16:39:00.810Z,28.80
2022-07-29T16:41:29.516Z,28.80
2022-07-29T16:43:56.689Z,29.50
2022-07-29T16:46:24.317Z,29.90
2022-07-29T16:48:53.737Z,30.00
2022-07-29T16:51:22.863Z,29.80
2022-07-29T16:53:52.129Z,29.70
2022-07-29T16:56:20.075Z,29.30
2022-07-29T16:58:48.966Z,29.10
2022-07-29T17:01:17.029Z,28.80
2022-07-29T17:04:05.390Z,28.50
2022-07-29T17:06:39.756Z,28.40
2022-07-29T17:09:16.607Z,27.90
2022-07-29T17:11:54.049Z,27.60
2022-07-29T17:14:41.896Z,27.70
2022-07-29T17:17:13.606Z,27.70
2022-07-29T17:19:40.884Z,27.70
2022-07-29T17:22:17.137Z,27.60
2022-07-29T17:24:46.980Z,27.30
2022-07-29T17:27:17.348Z,26.80
2022-07-29T17:29:45.738Z,26.90
2022-07-29T17:32:12.778Z,26.70
2022-07-29T17:34:41.229Z,27.10
2022-07-29T17:37:12.767Z,26.70
2022-07-29T17:39:42.594Z,26.80
2022-07-29T17:42:16.381Z,27.70
2022-07-29T17:44:43.483Z,26.30
2022-07-29T17:47:16.186Z,26.10
2022-07-29T17:49:44.532Z,26.30
2022-07-29T17:52:11.391Z,26.70
2022-07-29T17:54:42.916Z,26.90
2022-07-29T17:57:18.938Z,27.00
2022-07-29T17:59:52.701Z,27.30
2022-07-29T18:02:19.495Z,27.30
2022-07-29T18:04:50.792Z,27.90
2022-07-29T18:07:21.349Z,27.50
2022-07-29T18:09:48.048Z,27.80
2022-07-29T18:12:16.838Z,27.90
2022-07-29T18:14:45.549Z,27.60
2022-07-29T18:17:17.657Z,27.60
2022-07-29T18:19:44.310Z,27.70
2022-07-29T18:22:14.979Z,27.60
2022-07-29T18:24:42.193Z,27.70
2022-07-29T18:27:08.917Z,27.70
2022-07-29T18:29:38.193Z,28.00
2022-07-29T18:32:09.988Z,28.20
2022-07-29T18:34:36.655Z,28.40
2022-07-29T18:37:08.102Z,29.60
2022-07-29T18:39:39.730Z,29.20
2022-07-29T18:42:06.778Z,31.20
2022-07-29T18:44:43.537Z,30.20
2022-07-29T18:47:15.629Z,31.50
2022-07-29T18:49:48.878Z,31.10
2022-07-29T18:52:18.063Z,32.60
2022-07-29T18:54:45.170Z,33.40
2022-07-29T18:57:56.383Z,32.30
2022-07-29T19:00:04.394Z,34.70
2022-07-29T19:02:31.222Z,35.40
2022-07-29T19:04:58.045Z,33.90
2022-07-29T19:10:12.670Z,33.80
2022-07-29T19:12:39.431Z,33.90
2022-07-29T19:15:07.494Z,34.80
2022-07-29T19:17:34.163Z,34.50
2022-07-29T19:20:00.855Z,34.60
2022-07-29T19:22:34.652Z,34.70
2022-07-29T19:25:01.681Z,35.00
2022-07-29T19:27:30.881Z,36.30
2022-07-29T19:29:59.395Z,36.60
2022-07-29T19:32:28.736Z,37.70
2022-07-29T19:35:14.050Z,37.80
2022-07-29T19:37:40.716Z,38.30
2022-07-29T19:40:07.836Z,38.70
2022-07-29T19:42:34.479Z,38.20
2022-07-29T19:45:02.673Z,38.50
2022-07-29T19:47:30.513Z,39.00
2022-07-29T19:49:57.433Z,39.10
2022-07-29T19:52:24.085Z,39.90
2022-07-29T19:54:53.490Z,40.10
2022-07-29T19:57:24.784Z,40.50
2022-07-29T19:59:58.966Z,41.00
2022-07-29T20:02:25.779Z,41.30
2022-07-29T20:04:55.408Z,41.30
2022-07-29T20:07:24.553Z,40.90
2022-07-29T20:09:55.221Z,41.80
2022-07-29T20:12:24.265Z,42.00
2022-07-29T20:14:51.231Z,42.30
2022-07-29T20:17:22.259Z,42.20
2022-07-29T20:19:49.721Z,42.00
2022-07-29T20:22:21.091Z,42.80
2022-07-29T20:24:48.665Z,43.10
2022-07-29T20:27:15.561Z,43.00
2022-07-29T20:29:44.250Z,42.40
2022-07-29T20:32:12.356Z,42.50
2022-07-29T20:34:41.475Z,42.50
2022-07-29T20:37:13.223Z,42.60
2022-07-29T20:39:47.746Z,43.10
2022-07-29T20:42:24.069Z,42.80
2022-07-29T20:44:56.377Z,42.80
2022-07-29T20:47:25.519Z,42.80
2022-07-29T20:49:58.164Z,41.90
2022-07-29T20:52:24.956Z,43.40
2022-07-29T20:54:51.915Z,43.90
2022-07-29T20:57:38.967Z,44.20
2022-07-29T21:00:07.754Z,44.10
2022-07-29T21:02:37.293Z,44.60
2022-07-29T21:05:08.564Z,44.20
2022-07-29T21:07:38.041Z,44.90
2022-07-29T21:10:05.190Z,44.60
2022-07-29T21:12:33.334Z,44.50
2022-07-29T21:15:07.452Z,45.20
2022-07-29T21:17:38.860Z,44.90
2022-07-29T21:20:08.429Z,45.60
2022-07-29T21:22:36.301Z,45.10
2022-07-29T21:25:03.488Z,45.80
2022-07-29T21:27:51.903Z,45.40
2022-07-29T21:30:21.052Z,45.70
2022-07-29T21:32:47.817Z,46.40
2022-07-29T21:35:30.289Z,45.70
2022-07-29T21:38:04.514Z,45.80
2022-07-29T21:40:33.594Z,46.20
2022-07-29T21:43:02.677Z,46.70
2022-07-29T21:45:31.515Z,46.70
2022-07-29T21:47:58.136Z,47.00
2022-07-29T21:50:25.006Z,47.30
2022-07-29T21:52:51.733Z,47.40
2022-07-29T21:55:21.329Z,47.60
2022-07-29T21:57:50.971Z,47.70
2022-07-29T22:00:18.177Z,47.80
2022-07-29T22:02:45.219Z,48.00
2022-07-29T22:05:12.926Z,48.30
2022-07-29T22:07:55.658Z,48.40
2022-07-29T22:10:27.670Z,48.50
2022-07-29T22:12:56.362Z,48.70
2022-07-29T22:15:26.179Z,48.90
2022-07-29T22:17:53.081Z,49.10
2022-07-29T22:20:20.629Z,49.20
2022-07-29T22:22:48.101Z,49.50
2022-07-29T22:25:14.949Z,49.70
2022-07-29T22:27:42.206Z,49.90
2022-07-29T22:30:09.387Z,50.20
2022-07-29T22:32:36.283Z,50.40
2022-07-29T22:35:06.552Z,50.60
2022-07-29T22:37:33.311Z,51.10
2022-07-29T22:40:01.206Z,50.90
2022-07-29T22:42:32.929Z,51.10
2022-07-29T22:45:03.159Z,51.20
2022-07-29T22:47:46.162Z,51.20
2022-07-29T22:50:21.404Z,51.30
2022-07-29T22:52:48.085Z,51.50
2022-07-29T22:55:16.829Z,51.60
2022-07-29T22:57:50.501Z,51.60
2022-07-29T23:00:19.596Z,51.80
2022-07-29T23:02:47.617Z,51.90
2022-07-29T23:05:15.610Z,52.20
2022-07-29T23:07:44.370Z,52.30
2022-07-29T23:10:11.046Z,52.30
2022-07-29T23:12:39.022Z,52.50
2022-07-29T23:15:06.234Z,52.50
2022-07-29T23:17:36.665Z,52.70
2022-07-29T23:20:06.573Z,52.80
2022-07-29T23:22:33.821Z,53.00
2022-07-29T23:25:08.212Z,53.60
2022-07-29T23:27:39.889Z,53.30
2022-07-29T23:30:07.003Z,53.00
2022-07-29T23:32:36.209Z,53.10
2022-07-29T23:35:05.486Z,53.20
2022-07-29T23:37:35.002Z,53.20
2022-07-29T23:40:04.853Z,53.20
2022-07-29T23:42:31.573Z,53.50
2022-07-29T23:45:03.382Z,53.30
2022-07-29T23:47:35.750Z,53.70
2022-07-29T23:50:03.133Z,53.70
2022-07-29T23:52:29.814Z,52.60
2022-07-29T23:55:37.407Z,53.50
2022-07-29T23:57:46.880Z,53.20
